Time;durP1;ratioP1;P1;durP2;ratioP2;P2;SDS_P1;SDS_P2;PMS_P1;PMS_P2;Temp;Humidity;BMP_temperature;BMP_pressure;BME280_temperature;BME280_humidity;BME280_pressure;Samples;Min_cycle;Max_cycle;Signal;HPM_P1;HPM_P2
2022/12/09 03:48:08;;;;;;;11.90;4.57;;;3.20;88.40;;;;;;4946417;23;95167;-68
2022/12/09 03:50:50;;;;;;;12.35;5.22;;;3.30;88.20;;;;;;4801669;29;93553;-68
2022/12/09 03:53:21;;;;;;;13.60;4.90;;;3.30;88.00;;;;;;4799496;29;91844;-68
2022/12/09 03:56:00;;;;;;;11.45;5.05;;;3.30;88.10;;;;;;4802213;29;93357;-68
2022/12/09 03:58:30;;;;;;;15.48;4.90;;;3.40;88.20;;;;;;4803260;29;92151;-69
2022/12/09 04:00:56;;;;;;;12.43;4.55;;;3.40;88.00;;;;;;4821077;29;92911;-69
2022/12/09 04:03:22;;;;;;;12.88;5.13;;;3.40;88.10;;;;;;4822065;29;92329;-68
2022/12/09 04:05:47;;;;;;;14.93;5.38;;;3.50;88.20;;;;;;4799657;29;90569;-68
2022/12/09 04:08:13;;;;;;;12.60;4.82;;;3.50;87.90;;;;;;4784679;29;91606;-69
2022/12/09 04:10:39;;;;;;;12.98;5.13;;;3.50;87.90;;;;;;4801910;29;91951;-69
2022/12/09 04:13:05;;;;;;;13.00;4.72;;;3.50;88.40;;;;;;4802791;29;92862;-68
2022/12/09 04:15:30;;;;;;;13.00;4.63;;;3.50;88.60;;;;;;4793204;29;92009;-69
2022/12/09 04:17:56;;;;;;;12.93;5.38;;;3.50;88.80;;;;;;4784850;29;91928;-69
2022/12/09 04:20:22;;;;;;;14.45;4.82;;;3.50;88.90;;;;;;4797023;29;91978;-69
2022/12/09 04:22:47;;;;;;;12.35;5.03;;;3.50;88.50;;;;;;4802522;29;91448;-69
2022/12/09 04:25:13;;;;;;;15.38;5.35;;;3.50;88.60;;;;;;4803310;29;91762;-69
2022/12/09 04:27:39;;;;;;;13.65;5.13;;;3.60;88.50;;;;;;4802603;29;92046;-68
2022/12/09 04:30:05;;;;;;;14.82;5.20;;;3.60;88.50;;;;;;4802347;29;91347;-68
2022/12/09 04:32:32;;;;;;;13.27;5.70;;;3.60;88.20;;;;;;4802708;29;91884;-69
2022/12/09 04:34:57;;;;;;;11.50;4.90;;;3.60;88.10;;;;;;4801713;29;92100;-69
2022/12/09 04:37:23;;;;;;;14.38;5.40;;;3.60;87.70;;;;;;4802081;29;93250;-69
2022/12/09 04:39:49;;;;;;;18.02;7.38;;;3.50;88.30;;;;;;4802186;29;92891;-68
2022/12/09 04:42:14;;;;;;;25.55;10.05;;;3.50;88.50;;;;;;4803027;29;91546;-69
2022/12/09 04:44:40;;;;;;;16.85;6.13;;;3.50;88.30;;;;;;4801786;29;91774;-70
2022/12/09 04:47:06;;;;;;;15.70;5.75;;;3.50;88.30;;;;;;4799637;29;92079;-70
2022/12/09 04:49:31;;;;;;;14.43;5.55;;;3.50;88.40;;;;;;4791566;29;92956;-70
2022/12/09 04:51:57;;;;;;;18.50;6.97;;;3.50;88.40;;;;;;4783990;29;91584;-70
2022/12/09 04:54:23;;;;;;;22.95;9.60;;;3.50;88.60;;;;;;4787422;29;90631;-70
2022/12/09 04:56:49;;;;;;;17.67;7.82;;;3.50;88.50;;;;;;4783432;29;91866;-70
2022/12/09 04:59:15;;;;;;;18.08;7.00;;;3.50;88.20;;;;;;4785331;29;92145;-70
2022/12/09 05:01:40;;;;;;;23.08;7.13;;;3.50;88.20;;;;;;4782993;29;93384;-71
2022/12/09 05:04:06;;;;;;;23.98;9.48;;;3.50;88.30;;;;;;4795804;29;91903;-68
2022/12/09 05:06:32;;;;;;;25.38;9.30;;;3.50;88.20;;;;;;4785704;29;92279;-70
2022/12/09 05:08:58;;;;;;;19.58;7.28;;;3.50;88.00;;;;;;4800235;29;92086;-70
2022/12/09 05:11:24;;;;;;;21.63;7.05;;;3.60;87.80;;;;;;4790684;29;92026;-70
2022/12/09 05:13:50;;;;;;;21.00;6.68;;;3.70;87.60;;;;;;4783533;29;92375;-70
2022/12/09 05:16:18;;;;;;;20.58;6.97;;;3.60;87.20;;;;;;4790874;29;92564;-71
2022/12/09 05:18:45;;;;;;;21.23;6.88;;;3.60;87.50;;;;;;4809969;29;91555;-70
2022/12/09 05:21:14;;;;;;;21.17;6.63;;;3.70;87.60;;;;;;4805383;29;92406;-70
2022/12/09 05:23:40;;;;;;;20.98;6.82;;;3.70;87.20;;;;;;4798652;29;91401;-71
2022/12/09 05:26:07;;;;;;;18.30;5.90;;;3.70;87.50;;;;;;4803864;29;92726;-70
2022/12/09 05:28:33;;;;;;;13.65;5.78;;;3.70;87.50;;;;;;4792091;29;93965;-70
2022/12/09 05:31:05;;;;;;;14.98;6.05;;;3.80;87.60;;;;;;4805033;29;91360;-70
2022/12/09 05:33:32;;;;;;;12.82;5.38;;;3.80;87.50;;;;;;4788914;29;91984;-70
2022/12/09 05:35:58;;;;;;;13.70;5.88;;;3.80;87.80;;;;;;4789446;29;92936;-70
2022/12/09 05:38:24;;;;;;;12.77;5.43;;;3.80;87.80;;;;;;4798700;29;91824;-70
2022/12/09 05:40:50;;;;;;;17.90;5.97;;;3.80;88.30;;;;;;4794996;29;91295;-70
2022/12/09 05:43:16;;;;;;;14.35;5.95;;;3.70;88.50;;;;;;4790012;29;91243;-70
2022/12/09 05:45:42;;;;;;;14.90;5.90;;;3.80;88.50;;;;;;4796268;29;92793;-71
2022/12/09 05:48:08;;;;;;;16.15;5.40;;;3.90;88.50;;;;;;4793995;29;91407;-71
2022/12/09 05:50:34;;;;;;;12.52;5.32;;;3.90;89.20;;;;;;4800430;29;95070;-68
2022/12/09 05:53:00;;;;;;;15.90;5.82;;;3.90;88.20;;;;;;4791525;29;93880;-70
2022/12/09 05:55:25;;;;;;;14.48;5.32;;;3.90;88.00;;;;;;4790993;29;91893;-69
2022/12/09 05:57:51;;;;;;;16.42;6.43;;;3.80;88.40;;;;;;4794841;29;92997;-68
2022/12/09 06:00:17;;;;;;;16.95;6.18;;;3.80;88.80;;;;;;4797664;29;91859;-68
2022/12/09 06:02:43;;;;;;;18.90;7.05;;;3.80;88.90;;;;;;4796059;29;93200;-68
2022/12/09 06:05:09;;;;;;;16.73;6.05;;;3.70;89.30;;;;;;4797229;29;92310;-69
2022/12/09 06:07:35;;;;;;;22.65;6.88;;;3.70;89.60;;;;;;4796291;29;91898;-68
2022/12/09 06:10:01;;;;;;;16.30;6.45;;;3.70;89.60;;;;;;4802135;29;91356;-68
2022/12/09 06:12:27;;;;;;;20.85;6.93;;;3.70;89.90;;;;;;4794034;29;91285;-68
2022/12/09 06:14:53;;;;;;;19.77;6.20;;;3.70;90.00;;;;;;4803374;29;94299;-68
2022/12/09 06:17:19;;;;;;;17.50;6.28;;;3.70;90.00;;;;;;4794654;29;92217;-70
2022/12/09 06:19:44;;;;;;;14.90;6.07;;;3.70;90.00;;;;;;4799969;29;92349;-68
2022/12/09 06:22:10;;;;;;;14.77;5.88;;;3.80;90.10;;;;;;4797645;29;92805;-70
2022/12/09 06:24:36;;;;;;;15.50;6.18;;;3.70;90.10;;;;;;4794845;29;93948;-68
2022/12/09 06:27:02;;;;;;;17.30;6.32;;;3.80;90.10;;;;;;4795091;29;92949;-68
2022/12/09 06:29:28;;;;;;;16.73;6.00;;;3.80;90.00;;;;;;4800882;29;91801;-71
2022/12/09 06:31:53;;;;;;;16.08;6.15;;;3.80;89.50;;;;;;4793569;29;90987;-68
2022/12/09 06:34:19;;;;;;;16.05;6.05;;;3.80;89.40;;;;;;4795157;29;92832;-70
2022/12/09 06:36:45;;;;;;;16.13;6.68;;;3.80;89.40;;;;;;4799525;29;92037;-68
2022/12/09 06:39:10;;;;;;;17.25;6.03;;;3.80;89.40;;;;;;4794424;29;94226;-68
2022/12/09 06:41:38;;;;;;;15.40;6.18;;;3.80;89.00;;;;;;4802828;29;91795;-68
2022/12/09 06:44:04;;;;;;;17.95;6.43;;;3.80;89.50;;;;;;4798886;29;92342;-68
2022/12/09 06:46:30;;;;;;;14.30;5.75;;;3.80;89.40;;;;;;4788621;29;91940;-67
2022/12/09 06:48:55;;;;;;;17.85;6.55;;;3.90;89.10;;;;;;4797081;29;91372;-68
2022/12/09 06:51:22;;;;;;;18.13;5.97;;;3.90;88.80;;;;;;4800103;29;92059;-68
2022/12/09 06:53:48;;;;;;;15.48;5.53;;;3.80;89.00;;;;;;4798614;29;93101;-68
2022/12/09 06:56:14;;;;;;;16.20;5.65;;;3.80;89.40;;;;;;4798130;29;91218;-68
2022/12/09 06:58:42;;;;;;;15.73;5.43;;;3.80;89.30;;;;;;4794302;29;91777;-67
2022/12/09 07:01:14;;;;;;;13.05;5.50;;;3.90;89.00;;;;;;4793221;29;92020;-67
2022/12/09 07:03:44;;;;;;;14.25;6.43;;;3.90;88.20;;;;;;4801908;29;92968;-68
2022/12/09 07:06:35;;;;;;;18.20;6.40;;;3.90;87.70;;;;;;4786778;29;92151;-68
2022/12/09 07:09:05;;;;;;;18.83;5.70;;;3.90;87.60;;;;;;4788446;29;91557;-68
2022/12/09 07:11:31;;;;;;;15.35;5.72;;;3.80;88.10;;;;;;4796229;29;91569;-70
2022/12/09 07:13:57;;;;;;;16.13;5.95;;;3.80;88.00;;;;;;4793798;29;91956;-70
2022/12/09 07:16:25;;;;;;;16.85;5.93;;;3.90;87.80;;;;;;4795494;29;92567;-69
2022/12/09 07:18:53;;;;;;;12.35;5.45;;;3.80;87.80;;;;;;4792517;29;92151;-69
2022/12/09 07:21:23;;;;;;;17.65;5.95;;;3.90;87.50;;;;;;4789665;29;90861;-69
2022/12/09 07:23:50;;;;;;;16.05;5.68;;;3.90;88.30;;;;;;4804243;29;92601;-70
2022/12/09 07:26:18;;;;;;;12.60;5.45;;;3.80;87.60;;;;;;4797716;29;91741;-69
2022/12/09 07:28:46;;;;;;;13.38;5.25;;;3.90;87.40;;;;;;4784895;29;92604;-70
2022/12/09 07:31:23;;;;;;;12.73;5.57;;;3.90;87.70;;;;;;4802741;29;91713;-69
2022/12/09 07:33:50;;;;;;;;;;;3.90;87.60;;;;;;4779867;29;95765;-69
2022/12/09 07:36:19;;;;;;;14.02;5.15;;;3.90;86.90;;;;;;4784322;29;92988;-69
2022/12/09 07:38:46;;;;;;;12.98;5.57;;;3.90;86.70;;;;;;4781873;29;91781;-70
2022/12/09 07:41:19;;;;;;;15.40;6.00;;;4.00;87.00;;;;;;4798793;29;91405;-70
2022/12/09 07:43:47;;;;;;;18.50;5.50;;;4.10;86.80;;;;;;4777117;29;95354;-70
2022/12/09 07:46:15;;;;;;;15.00;5.47;;;4.10;86.30;;;;;;4796803;29;91752;-69
2022/12/09 07:48:42;;;;;;;14.65;5.63;;;4.20;86.70;;;;;;4793457;29;92096;-69
2022/12/09 07:51:09;;;;;;;13.82;5.75;;;4.20;85.70;;;;;;4796167;29;91948;-70
2022/12/09 07:53:36;;;;;;;13.27;5.53;;;4.20;86.10;;;;;;4794188;29;92936;-70
2022/12/09 07:56:10;;;;;;;16.13;5.75;;;4.20;86.20;;;;;;4797135;29;92863;-70
2022/12/09 07:58:37;;;;;;;21.85;6.15;;;4.20;86.40;;;;;;4800112;29;91644;-69
2022/12/09 08:01:20;;;;;;;15.50;6.13;;;4.30;85.40;;;;;;4797098;29;91339;-69
2022/12/09 08:03:48;;;;;;;17.30;6.35;;;4.30;85.80;;;;;;4797084;29;93942;-69
2022/12/09 08:06:17;;;;;;;16.90;6.32;;;4.20;86.20;;;;;;4791012;29;92240;-70
2022/12/09 08:08:43;;;;;;;21.08;6.13;;;4.30;85.90;;;;;;4781288;29;92220;-69
2022/12/09 08:11:19;;;;;;;15.63;6.22;;;4.40;86.30;;;;;;4803017;29;91254;-70
2022/12/09 08:13:46;;;;;;;17.58;6.03;;;4.30;86.10;;;;;;4797390;29;92197;-69
2022/12/09 08:16:15;;;;;;;22.92;6.88;;;4.40;85.50;;;;;;4797116;29;92557;-70
2022/12/09 08:18:43;;;;;;;13.35;6.05;;;4.30;85.20;;;;;;4781254;29;93283;-69
2022/12/09 08:21:13;;;;;;;16.30;5.95;;;4.30;84.70;;;;;;4792208;29;91884;-69
2022/12/09 08:23:40;;;;;;;21.45;7.03;;;4.30;84.30;;;;;;4791223;29;91865;-70
2022/12/09 08:26:07;;;;;;;17.13;6.97;;;4.30;84.30;;;;;;4778922;29;93808;-70
2022/12/09 08:28:34;;;;;;;18.77;8.43;;;4.30;84.20;;;;;;4795634;29;91354;-69
2022/12/09 08:31:09;;;;;;;17.20;7.45;;;4.20;84.50;;;;;;4794399;29;91375;-69
2022/12/09 08:33:36;;;;;;;21.42;7.68;;;4.20;85.50;;;;;;4786827;29;92165;-69
2022/12/09 08:36:08;;;;;;;19.08;8.40;;;4.20;85.60;;;;;;4798286;29;94922;-69
2022/12/09 08:38:35;;;;;;;20.60;8.70;;;4.30;85.90;;;;;;4793632;29;91413;-69
2022/12/09 08:41:35;;;;;;;27.23;8.25;;;4.30;86.60;;;;;;4792454;29;91835;-69
2022/12/09 08:44:07;;;;;;;20.30;8.00;;;4.30;85.80;;;;;;4793602;29;93274;-69
2022/12/09 08:46:34;;;;;;;20.42;7.88;;;4.30;86.40;;;;;;4780697;29;94867;-69
2022/12/09 08:49:02;;;;;;;22.77;7.78;;;4.40;86.10;;;;;;4774966;29;91660;-69
2022/12/09 08:51:29;;;;;;;19.40;7.60;;;4.40;86.20;;;;;;4775907;29;92167;-68
2022/12/09 08:53:56;;;;;;;21.20;7.82;;;4.30;86.90;;;;;;4790044;29;94514;-69
2022/12/09 08:56:24;;;;;;;24.60;8.18;;;4.30;87.60;;;;;;4785533;29;92407;-69
2022/12/09 08:58:51;;;;;;;21.75;6.82;;;4.30;87.40;;;;;;4780927;29;91816;-69
2022/12/09 09:01:21;;;;;;;19.83;8.27;;;4.40;86.50;;;;;;4776301;29;91349;-69
2022/12/09 09:03:48;;;;;;;20.60;8.65;;;4.40;86.50;;;;;;4781896;29;94515;-69
2022/12/09 09:06:15;;;;;;;20.98;8.15;;;4.40;86.50;;;;;;4778579;29;93312;-69
2022/12/09 09:08:42;;;;;;;18.02;7.47;;;4.30;86.70;;;;;;4779955;29;92698;-69
2022/12/09 09:11:19;;;;;;;18.45;8.18;;;4.40;87.30;;;;;;4771412;29;91396;-70
2022/12/09 09:13:50;;;;;;;20.52;7.97;;;4.50;87.20;;;;;;4769726;29;92047;-70
2022/12/09 09:16:20;;;;;;;19.77;7.93;;;4.60;86.50;;;;;;4771056;29;92222;-70
2022/12/09 09:18:47;;;;;;;16.40;7.40;;;4.70;85.70;;;;;;4777443;29;91481;-70
2022/12/09 09:21:16;;;;;;;20.15;7.43;;;4.70;85.30;;;;;;4778099;29;92061;-70
2022/12/09 09:23:43;;;;;;;17.77;8.43;;;4.80;85.70;;;;;;4781010;29;92172;-69
2022/12/09 09:26:21;;;;;;;22.25;7.82;;;4.80;85.20;;;;;;4781557;29;93379;-69
2022/12/09 09:28:48;;;;;;;24.15;7.53;;;4.90;85.20;;;;;;4783996;29;91879;-69
2022/12/09 09:31:20;;;;;;;22.77;7.82;;;4.90;85.10;;;;;;4778602;29;91945;-70
2022/12/09 09:33:48;;;;;;;18.73;7.43;;;4.90;85.60;;;;;;4796828;29;95178;-69
2022/12/09 09:36:25;;;;;;;18.60;7.78;;;4.90;85.30;;;;;;4779736;29;94406;-69
2022/12/09 09:38:55;;;;;;;22.02;8.43;;;4.90;85.30;;;;;;4779972;29;91961;-70
2022/12/09 09:41:47;;;;;;;23.30;7.70;;;4.90;85.40;;;;;;4794081;29;92132;-69
2022/12/09 09:44:22;;;;;;;16.30;7.20;;;4.80;85.30;;;;;;4775054;29;91651;-69
2022/12/09 09:46:50;;;;;;;18.23;7.88;;;4.80;86.00;;;;;;4777640;29;93878;-70
2022/12/09 09:49:27;;;;;;;20.15;7.80;;;4.80;85.70;;;;;;4782342;29;91754;-69
2022/12/09 09:51:53;;;;;;;20.10;6.75;;;4.80;86.20;;;;;;4799816;29;90955;-69
2022/12/09 09:54:19;;;;;;;18.35;8.00;;;4.80;85.70;;;;;;4775858;29;92726;-70
2022/12/09 09:56:59;;;;;;;21.50;7.72;;;4.90;86.30;;;;;;4782205;29;92086;-70
2022/12/09 09:59:31;;;;;;;20.00;7.45;;;5.00;85.30;;;;;;4781709;29;92557;-69
2022/12/09 10:02:16;;;;;;;28.05;8.10;;;5.00;85.60;;;;;;4782089;29;91985;-69
2022/12/09 10:05:06;;;;;;;18.50;8.25;;;4.90;86.00;;;;;;4785567;29;92072;-70
2022/12/09 10:07:41;;;;;;;21.70;8.18;;;5.00;85.50;;;;;;4770959;29;92114;-70
2022/12/09 10:10:09;;;;;;;21.77;7.75;;;5.00;85.20;;;;;;4773997;29;92039;-70
2022/12/09 10:13:09;;;;;;;17.98;7.60;;;4.90;85.60;;;;;;4782606;29;91875;-70
2022/12/09 10:15:46;;;;;;;20.95;8.10;;;5.00;85.70;;;;;;4783891;29;91728;-70
2022/12/09 10:18:19;;;;;;;18.73;8.20;;;5.10;85.80;;;;;;4779366;29;91201;-70
2022/12/09 10:20:46;;;;;;;17.88;7.95;;;5.20;85.90;;;;;;4776448;29;91687;-69
2022/12/09 10:23:14;;;;;;;17.00;8.32;;;5.20;85.40;;;;;;4778700;29;92346;-69
2022/12/09 10:26:01;;;;;;;18.58;8.82;;;5.40;85.20;;;;;;4780876;29;92657;-70
2022/12/09 10:28:35;;;;;;;19.90;8.00;;;5.50;84.90;;;;;;4773932;29;93121;-69
2022/12/09 10:31:02;;;;;;;23.08;9.18;;;5.50;84.90;;;;;;4776215;29;92996;-69
2022/12/09 10:33:32;;;;;;;21.67;8.75;;;5.50;84.50;;;;;;4795613;29;91577;-70
2022/12/09 10:35:59;;;;;;;23.67;10.50;;;5.60;84.60;;;;;;4797970;29;94943;-70
2022/12/09 10:38:29;;;;;;;21.48;9.77;;;5.70;85.10;;;;;;4782563;29;92343;-69
2022/12/09 10:43:33;;;;;;;26.15;10.68;;;5.60;84.60;;;;;;4785475;29;92194;-69
2022/12/09 10:44:20;;;;;;;27.80;10.02;;;5.60;84.60;;;;;;4775557;29;91181;-70
2022/12/09 10:46:47;;;;;;;23.15;10.48;;;5.70;84.60;;;;;;4775676;29;95535;-70
2022/12/09 10:49:21;;;;;;;25.55;11.10;;;5.80;85.00;;;;;;4779849;29;91565;-70
2022/12/09 10:51:50;;;;;;;23.27;9.75;;;5.80;85.10;;;;;;4780233;29;92758;-70
2022/12/09 10:54:39;;;;;;;22.73;10.50;;;6.00;85.90;;;;;;4775685;29;92281;-71
2022/12/09 10:57:05;;;;;;;30.27;13.20;;;6.00;84.90;;;;;;4776341;29;92825;-68
2022/12/09 10:59:33;;;;;;;25.17;10.63;;;6.10;85.80;;;;;;4794943;29;95464;-69
2022/12/09 11:02:01;;;;;;;22.83;9.23;;;6.20;86.10;;;;;;4779434;29;91733;-69
2022/12/09 11:04:34;;;;;;;23.67;9.75;;;6.30;85.60;;;;;;4775699;29;91445;-69
2022/12/09 11:07:02;;;;;;;21.58;10.07;;;6.40;85.70;;;;;;4766533;29;94003;-69
2022/12/09 11:09:30;;;;;;;24.67;10.43;;;6.40;88.20;;;;;;4777394;29;93148;-69
2022/12/09 11:11:58;;;;;;;25.25;11.05;;;6.50;86.50;;;;;;4778337;29;91988;-70
2022/12/09 11:14:50;;;;;;;28.17;14.25;;;6.50;86.00;;;;;;4787204;29;92404;-70
2022/12/09 11:17:16;;;;;;;26.98;11.90;;;6.50;86.00;;;;;;4779849;29;92795;-69
2022/12/09 11:19:49;;;;;;;22.25;10.05;;;6.50;85.80;;;;;;4781690;29;92415;-69
2022/12/09 11:22:24;;;;;;;23.10;9.25;;;6.50;86.00;;;;;;4782023;29;91346;-69
2022/12/09 11:25:04;;;;;;;24.90;10.55;;;6.50;85.90;;;;;;4779546;29;92144;-69
2022/12/09 11:27:33;;;;;;;19.52;9.40;;;6.40;86.40;;;;;;4774920;29;91965;-69
2022/12/09 11:30:16;;;;;;;19.92;9.40;;;6.50;85.70;;;;;;4799323;29;93894;-69
2022/12/09 11:33:04;;;;;;;22.42;9.10;;;6.50;85.70;;;;;;4780212;29;91520;-69
2022/12/09 11:35:46;;;;;;;21.45;9.27;;;6.50;86.30;;;;;;4783775;29;90900;-68
2022/12/09 11:38:15;;;;;;;19.65;9.27;;;6.50;85.40;;;;;;4781580;29;92061;-68
2022/12/09 11:40:43;;;;;;;20.90;9.65;;;6.40;85.60;;;;;;4780546;29;92284;-69
2022/12/09 11:43:10;;;;;;;20.45;9.82;;;6.40;85.50;;;;;;4782635;29;93305;-69
2022/12/09 11:45:39;;;;;;;20.55;9.40;;;6.30;85.60;;;;;;4778752;29;92120;-69
2022/12/09 11:48:29;;;;;;;22.08;9.63;;;6.40;85.20;;;;;;4789601;29;92300;-69
2022/12/09 11:50:56;;;;;;;21.38;9.88;;;6.30;85.70;;;;;;4778625;29;91540;-68
2022/12/09 11:53:37;;;;;;;19.92;9.77;;;6.20;86.20;;;;;;4792900;29;92321;-69
2022/12/09 11:56:27;;;;;;;20.42;9.88;;;6.20;86.10;;;;;;4794346;29;91380;-70
2022/12/09 11:59:12;;;;;;;21.30;9.27;;;6.30;86.30;;;;;;4789576;29;91592;-69
2022/12/09 12:02:15;;;;;;;21.00;9.63;;;6.30;85.70;;;;;;4797496;29;91931;-69
2022/12/09 12:05:08;;;;;;;23.15;9.50;;;6.20;85.60;;;;;;4802655;29;91362;-69
2022/12/09 12:08:05;;;;;;;18.48;8.95;;;6.20;86.30;;;;;;4790968;29;92734;-69
2022/12/09 12:10:55;;;;;;;22.98;9.23;;;6.20;86.00;;;;;;4784946;29;94066;-69
2022/12/09 12:13:27;;;;;;;19.80;8.93;;;6.30;86.10;;;;;;4785819;29;93337;-68
2022/12/09 12:16:10;;;;;;;19.67;9.20;;;6.30;85.90;;;;;;4802510;29;92527;-69
2022/12/09 12:18:42;;;;;;;21.33;9.52;;;6.30;85.20;;;;;;4795476;29;91815;-69
2022/12/09 12:21:29;;;;;;;19.58;8.70;;;6.20;86.00;;;;;;4788052;29;91600;-69
2022/12/09 12:24:12;;;;;;;18.48;8.50;;;6.20;87.50;;;;;;4801081;29;91363;-69
2022/12/09 12:27:05;;;;;;;25.77;8.70;;;6.10;86.70;;;;;;4792281;29;92069;-69
2022/12/09 12:30:07;;;;;;;20.15;8.45;;;6.10;86.00;;;;;;4774764;29;91085;-70
2022/12/09 12:33:01;;;;;;;23.23;8.70;;;6.10;86.50;;;;;;4774774;29;92165;-69
2022/12/09 12:36:01;;;;;;;21.88;8.88;;;6.10;86.00;;;;;;4795690;29;92500;-69
2022/12/09 12:38:45;;;;;;;21.10;9.52;;;6.10;86.50;;;;;;4763590;29;92487;-69
2022/12/09 12:41:35;;;;;;;21.65;8.57;;;6.10;86.60;;;;;;4793779;29;92264;-72
2022/12/09 12:47:12;;;;;;;21.55;8.45;;;6.00;86.50;;;;;;4793465;29;92007;-69
2022/12/09 12:50:13;;;;;;;21.13;8.63;;;5.90;87.20;;;;;;4795410;29;92056;-69
2022/12/09 12:52:44;;;;;;;19.67;8.48;;;5.80;87.60;;;;;;4795225;29;93660;-69
2022/12/09 12:55:34;;;;;;;21.95;8.35;;;5.80;87.40;;;;;;4794540;29;91683;-69
2022/12/09 12:58:23;;;;;;;18.63;8.40;;;5.80;87.90;;;;;;4791512;29;91854;-69
2022/12/09 13:01:06;;;;;;;21.17;8.65;;;5.80;87.90;;;;;;4791002;29;92135;-69
2022/12/09 13:03:46;;;;;;;18.20;8.32;;;5.90;87.80;;;;;;4793828;29;91620;-69
2022/12/09 13:06:19;;;;;;;20.27;8.55;;;5.90;87.90;;;;;;4792954;29;93130;-69
2022/12/09 13:09:10;;;;;;;22.45;8.57;;;5.90;88.40;;;;;;4793770;29;92885;-69
2022/12/09 13:11:56;;;;;;;23.85;8.98;;;5.90;88.50;;;;;;4795333;29;91684;-69
2022/12/09 13:14:32;;;;;;;21.45;8.75;;;5.80;88.30;;;;;;4799091;29;91334;-69
2022/12/09 13:17:00;;;;;;;;;;;5.80;88.70;;;;;;4793868;29;92321;-69
2022/12/09 13:19:35;;;;;;;19.02;8.27;;;5.80;88.50;;;;;;4796953;29;92625;-69
2022/12/09 13:22:02;;;;;;;22.40;9.98;;;5.70;88.90;;;;;;4798696;29;91427;-69
2022/12/09 13:24:41;;;;;;;21.17;8.73;;;5.70;89.40;;;;;;4792607;29;91166;-69
2022/12/09 13:27:18;;;;;;;20.50;9.10;;;5.70;89.50;;;;;;4795302;29;91807;-69
2022/12/09 13:30:00;;;;;;;17.63;8.25;;;5.60;89.70;;;;;;4795844;29;92010;-69
2022/12/09 13:32:41;;;;;;;19.05;8.27;;;5.60;89.90;;;;;;4798367;29;92577;-69
2022/12/09 13:35:32;;;;;;;18.67;8.63;;;5.40;90.00;;;;;;4795869;29;91334;-69
2022/12/09 13:37:59;;;;;;;21.15;8.32;;;5.50;90.20;;;;;;4798029;29;91578;-69
2022/12/09 13:40:30;;;;;;;19.83;8.70;;;5.50;90.30;;;;;;4797917;29;91872;-69
2022/12/09 13:43:01;;;;;;;24.23;8.65;;;5.50;90.20;;;;;;4801418;29;92059;-69
2022/12/09 13:45:34;;;;;;;22.75;9.02;;;5.50;90.30;;;;;;4800335;29;92442;-71
2022/12/09 13:48:12;;;;;;;21.05;8.95;;;5.50;90.30;;;;;;4795324;29;92371;-69
2022/12/09 13:50:43;;;;;;;21.42;8.55;;;5.40;90.20;;;;;;4795874;29;91160;-68
2022/12/09 13:53:20;;;;;;;19.95;8.55;;;5.40;90.40;;;;;;4801534;29;91411;-68
2022/12/09 13:56:00;;;;;;;18.35;8.30;;;5.50;90.30;;;;;;4802477;29;91620;-69
2022/12/09 13:58:35;;;;;;;18.75;8.82;;;5.50;90.50;;;;;;4799697;29;93290;-68
2022/12/09 14:01:16;;;;;;;18.90;8.60;;;5.40;90.60;;;;;;4791242;29;92631;-69
2022/12/09 14:04:05;;;;;;;20.58;8.50;;;5.40;90.60;;;;;;4798628;29;91930;-69
2022/12/09 14:06:46;;;;;;;16.25;7.72;;;5.40;91.00;;;;;;4791134;29;91703;-69
2022/12/09 14:09:34;;;;;;;19.40;8.65;;;5.40;90.90;;;;;;4796645;29;92250;-69
2022/12/09 14:12:12;;;;;;;16.80;8.55;;;5.40;91.00;;;;;;4800766;29;92019;-69
2022/12/09 14:14:49;;;;;;;18.95;8.18;;;5.40;91.00;;;;;;4806420;29;91504;-69
2022/12/09 14:17:39;;;;;;;17.48;7.72;;;5.40;90.90;;;;;;4797005;29;91318;-69
2022/12/09 14:20:30;;;;;;;19.48;8.48;;;5.50;90.90;;;;;;4805998;29;92394;-69
2022/12/09 14:23:10;;;;;;;17.85;8.43;;;5.40;91.00;;;;;;4803517;29;92212;-70
2022/12/09 14:25:36;;;;;;;18.13;8.48;;;5.40;91.00;;;;;;4799167;29;92658;-69
2022/12/09 14:28:10;;;;;;;20.83;8.95;;;5.40;91.20;;;;;;4802731;29;92647;-69
2022/12/09 14:30:58;;;;;;;18.88;8.38;;;5.40;91.20;;;;;;4802787;29;92178;-70
2022/12/09 14:33:45;;;;;;;19.95;8.60;;;5.50;91.20;;;;;;4799429;29;92006;-70
2022/12/09 14:36:14;;;;;;;18.40;8.35;;;5.50;90.80;;;;;;4799193;29;92101;-69
2022/12/09 14:39:11;;;;;;;20.65;8.60;;;5.50;90.80;;;;;;4802066;29;92236;-70
2022/12/09 14:41:50;;;;;;;19.77;8.38;;;5.50;91.10;;;;;;4803266;29;91798;-69
2022/12/09 14:44:16;;;;;;;20.95;8.48;;;5.50;91.00;;;;;;4801387;29;91934;-69
2022/12/09 14:46:44;;;;;;;19.02;7.68;;;5.40;91.10;;;;;;4797141;29;92577;-69
2022/12/09 14:49:23;;;;;;;18.02;8.20;;;5.40;93.50;;;;;;4799705;29;92600;-71
2022/12/09 14:51:54;;;;;;;18.83;8.65;;;5.50;91.30;;;;;;4798570;29;92835;-70
2022/12/09 14:54:33;;;;;;;17.70;8.25;;;5.50;91.20;;;;;;4800440;29;93105;-70
2022/12/09 14:57:02;;;;;;;16.58;6.85;;;5.40;91.20;;;;;;4800066;29;92094;-70
2022/12/09 14:59:30;;;;;;;15.23;7.82;;;5.40;91.10;;;;;;4803049;29;92015;-72
2022/12/09 15:01:59;;;;;;;15.63;7.22;;;5.30;91.50;;;;;;4797885;29;91717;-72
2022/12/09 15:04:38;;;;;;;16.30;7.38;;;5.20;91.50;;;;;;4779441;29;96297;-71
2022/12/09 15:07:20;;;;;;;15.52;6.72;;;5.20;91.70;;;;;;4794906;29;92210;-70
2022/12/09 15:09:55;;;;;;;17.48;7.55;;;5.20;91.70;;;;;;4800988;29;91058;-70
2022/12/09 15:12:31;;;;;;;16.13;7.68;;;5.20;91.80;;;;;;4794162;29;91679;-70
2022/12/09 15:15:09;;;;;;;19.45;8.82;;;5.20;92.40;;;;;;4801979;29;91405;-70
2022/12/09 15:17:43;;;;;;;15.82;7.95;;;5.30;92.00;;;;;;4795546;29;92288;-70
2022/12/09 15:20:35;;;;;;;18.88;9.32;;;5.30;91.80;;;;;;4805085;29;91484;-70
2022/12/09 15:23:31;;;;;;;17.85;7.93;;;5.30;91.80;;;;;;4805682;29;92376;-69
2022/12/09 15:25:59;;;;;;;15.25;6.85;;;5.30;91.70;;;;;;4803308;29;91409;-69
2022/12/09 15:28:28;;;;;;;14.65;7.18;;;5.20;92.00;;;;;;4804717;29;91365;-70
2022/12/09 15:30:57;;;;;;;13.85;6.60;;;5.20;92.10;;;;;;4803252;29;91838;-69
2022/12/09 15:33:23;;;;;;;16.48;7.55;;;5.20;92.10;;;;;;4801425;29;92308;-70
2022/12/09 15:36:05;;;;;;;18.50;9.27;;;5.20;92.10;;;;;;4798615;29;91980;-70
2022/12/09 15:38:40;;;;;;;17.25;8.20;;;5.30;92.20;;;;;;4798285;29;91668;-70
2022/12/09 15:43:56;;;;;;;16.42;7.88;;;5.20;92.20;;;;;;4795058;29;93456;-69
2022/12/09 15:46:24;;;;;;;15.20;6.97;;;5.00;92.30;;;;;;4791773;29;92092;-70
2022/12/09 15:48:54;;;;;;;14.82;6.78;;;5.00;92.40;;;;;;4793546;29;91330;-69
2022/12/09 15:51:21;;;;;;;13.55;6.38;;;5.00;92.30;;;;;;4790021;29;92004;-69
2022/12/09 15:53:53;;;;;;;13.75;6.53;;;4.90;92.50;;;;;;4795607;29;91578;-70
2022/12/09 15:56:45;;;;;;;18.08;7.45;;;5.00;92.40;;;;;;4790889;29;92083;-69
2022/12/09 15:59:21;;;;;;;16.45;7.25;;;4.90;92.80;;;;;;4784287;29;91498;-69
2022/12/09 16:01:49;;;;;;;16.35;7.97;;;4.90;92.80;;;;;;4802092;29;91895;-69
2022/12/09 16:04:21;;;;;;;16.40;7.43;;;4.90;92.70;;;;;;4803693;29;92281;-69
2022/12/09 16:06:49;;;;;;;16.15;7.97;;;4.80;92.50;;;;;;4796739;29;92087;-69
2022/12/09 16:09:20;;;;;;;17.90;8.68;;;4.80;92.70;;;;;;4805140;29;93167;-69
2022/12/09 16:11:50;;;;;;;16.98;7.78;;;4.80;92.60;;;;;;4789696;29;91368;-69
2022/12/09 16:14:17;;;;;;;16.20;8.27;;;4.80;92.80;;;;;;4796159;29;92296;-69
2022/12/09 16:16:48;;;;;;;17.73;8.32;;;4.80;92.90;;;;;;4789734;29;91373;-69
2022/12/09 16:19:35;;;;;;;17.85;8.98;;;4.70;92.50;;;;;;4802532;29;91677;-69
2022/12/09 16:22:18;;;;;;;19.67;8.85;;;4.70;92.70;;;;;;4805273;29;91860;-69
2022/12/09 16:25:06;;;;;;;17.35;8.88;;;4.70;92.60;;;;;;4791251;29;92631;-70
2022/12/09 16:27:36;;;;;;;16.92;8.02;;;4.60;93.00;;;;;;4802707;29;91360;-69
2022/12/09 16:30:19;;;;;;;17.33;8.93;;;4.50;93.00;;;;;;4802340;29;92122;-70
2022/12/09 16:33:16;;;;;;;19.00;8.13;;;4.50;93.10;;;;;;4794564;29;93577;-69
2022/12/09 16:35:43;;;;;;;16.52;8.25;;;4.50;93.00;;;;;;4791095;29;92863;-70
2022/12/09 16:38:09;;;;;;;15.88;8.05;;;4.50;93.00;;;;;;4794931;29;92904;-69
2022/12/09 16:40:43;;;;;;;19.23;8.88;;;4.40;93.20;;;;;;4800535;29;91853;-69
2022/12/09 16:43:15;;;;;;;19.00;9.52;;;4.30;93.40;;;;;;4799643;29;91361;-69
2022/12/09 16:45:42;;;;;;;20.42;9.38;;;4.30;93.40;;;;;;4799210;29;92381;-69
2022/12/09 16:48:09;;;;;;;18.88;8.43;;;4.40;93.50;;;;;;4798794;29;91995;-70
2022/12/09 16:50:38;;;;;;;18.15;8.80;;;4.40;93.70;;;;;;4798413;29;91263;-69
2022/12/09 16:53:13;;;;;;;18.23;8.18;;;4.40;93.40;;;;;;4800738;29;91918;-70
2022/12/09 16:55:39;;;;;;;18.10;8.32;;;4.50;93.30;;;;;;4801678;29;92135;-70
2022/12/09 16:58:04;;;;;;;17.58;9.02;;;4.50;93.30;;;;;;4800010;29;92311;-70
2022/12/09 17:00:30;;;;;;;18.80;9.27;;;4.40;93.30;;;;;;4793400;29;92417;-70
2022/12/09 17:03:06;;;;;;;22.00;9.48;;;4.40;93.40;;;;;;4801728;29;93074;-69
2022/12/09 17:05:32;;;;;;;20.35;9.25;;;4.40;93.40;;;;;;4803486;29;93215;-69
2022/12/09 17:07:57;;;;;;;19.27;8.95;;;4.40;93.40;;;;;;4801929;29;91946;-69
2022/12/09 17:10:23;;;;;;;18.13;9.20;;;4.30;93.60;;;;;;4797931;29;91711;-69